Time;durP1;ratioP1;P1;durP2;ratioP2;P2;SDS_P1;SDS_P2;PMS_P1;PMS_P2;Temp;Humidity;BMP_temperature;BMP_pressure;BME280_temperature;BME280_humidity;BME280_pressure;Samples;Min_cycle;Max_cycle;Signal;HPM_P1;HPM_P2
2022/01/25 00:08:44;;;;;;;5.50;3.10;;;;;;;;;;5059626;28;20040;-79
2022/01/25 00:29:47;;;;;;;5.45;3.35;;;;;;;;;;5056119;28;20262;-79
2022/01/25 00:32:14;;;;;;;3.22;2.47;;;;;;;;;;5044390;28;20026;-82
2022/01/25 00:34:39;;;;;;;2.83;2.10;;;;;;;;;;5059952;28;20036;-82
2022/01/25 00:37:05;;;;;;;2.33;1.77;;;;;;;;;;5058170;28;20033;-80
2022/01/25 00:39:31;;;;;;;4.45;2.75;;;;;;;;;;5049762;28;20063;-80
2022/01/25 00:41:57;;;;;;;3.92;2.33;;;;;;;;;;5046954;28;20107;-80
2022/01/25 00:44:24;;;;;;;4.65;3.30;;;;;;;;;;5054036;28;20105;-80
2022/01/25 00:46:49;;;;;;;4.82;2.78;;;;;;;;;;5049492;28;20029;-80
2022/01/25 00:49:25;;;;;;;7.35;3.78;;;;;;;;;;5050256;28;20035;-79
2022/01/25 00:54:28;;;;;;;5.68;2.83;;;;;;;;;;5051594;28;20025;-79
2022/01/25 00:56:55;;;;;;;6.30;3.55;;;;;;;;;;5050488;28;20362;-80
2022/01/25 00:59:29;;;;;;;5.30;3.72;;;;;;;;;;5052682;28;20029;-80
2022/01/25 01:01:58;;;;;;;5.38;2.63;;;;;;;;;;5055953;28;20477;-79
2022/01/25 01:04:23;;;;;;;5.07;3.70;;;;;;;;;;5050558;28;20397;-80
2022/01/25 01:06:50;;;;;;;5.13;3.13;;;;;;;;;;5050611;28;20067;-80
2022/01/25 01:09:18;;;;;;;3.85;2.42;;;;;;;;;;5050077;28;20158;-80
2022/01/25 01:36:19;;;;;;;3.35;2.75;;;;;;;;;;5054082;28;20056;-80
2022/01/25 01:43:53;;;;;;;6.15;3.47;;;;;;;;;;5048237;28;20060;-79
2022/01/25 01:46:34;;;;;;;5.63;3.58;;;;;;;;;;5051626;28;20025;-80
2022/01/25 01:49:02;;;;;;;7.68;4.32;;;;;;;;;;5057921;28;20031;-79
2022/01/25 01:51:33;;;;;;;5.40;4.07;;;;;;;;;;5048526;28;20037;-80
2022/01/25 01:54:11;;;;;;;7.15;3.90;;;;;;;;;;5046331;28;20028;-77
2022/01/25 01:56:39;;;;;;;4.10;2.97;;;;;;;;;;5051079;28;20054;-80
2022/01/25 01:59:09;;;;;;;7.30;3.47;;;;;;;;;;5058192;28;20025;-79
2022/01/25 02:01:36;;;;;;;;;;;;;;;;;;5050511;28;20099;-80
2022/01/25 02:04:04;;;;;;;5.40;3.70;;;;;;;;;;5055750;28;19967;-79
2022/01/25 02:06:30;;;;;;;5.57;3.40;;;;;;;;;;5051698;28;20051;-78
2022/01/25 02:08:56;;;;;;;6.82;4.00;;;;;;;;;;5059783;28;20028;-79
2022/01/25 02:11:22;;;;;;;8.48;4.45;;;;;;;;;;5051586;28;20458;-79
2022/01/25 02:13:48;;;;;;;4.55;2.70;;;;;;;;;;5054821;28;20848;-79
2022/01/25 02:24:42;;;;;;;5.80;3.13;;;;;;;;;;5051833;28;20041;-78
2022/01/25 02:27:08;;;;;;;5.15;2.83;;;;;;;;;;5048514;28;20064;-78
2022/01/25 02:29:34;;;;;;;5.18;3.03;;;;;;;;;;5047312;28;20031;-78
2022/01/25 02:31:59;;;;;;;4.75;3.38;;;;;;;;;;5046946;28;20032;-82
2022/01/25 02:34:26;;;;;;;4.90;3.58;;;;;;;;;;5058582;28;20040;-83
2022/01/25 02:36:57;;;;;;;4.97;3.17;;;;;;;;;;5053138;28;20369;-79
2022/01/25 02:39:23;;;;;;;6.22;4.45;;;;;;;;;;5056978;28;20032;-78
2022/01/25 02:41:50;;;;;;;5.78;4.13;;;;;;;;;;5049064;28;20035;-81
2022/01/25 02:44:23;;;;;;;6.53;3.55;;;;;;;;;;5054783;28;20032;-78
2022/01/25 02:49:16;;;;;;;4.35;3.13;;;;;;;;;;5056981;28;20024;-82
2022/01/25 02:51:48;;;;;;;4.35;2.83;;;;;;;;;;5056779;28;20035;-81
2022/01/25 02:54:16;;;;;;;5.72;3.88;;;;;;;;;;5055567;28;20063;-81
2022/01/25 02:56:44;;;;;;;6.78;4.32;;;;;;;;;;5061622;28;20384;-80
2022/01/25 02:59:11;;;;;;;5.60;3.50;;;;;;;;;;5052218;28;20339;-80
2022/01/25 03:01:37;;;;;;;8.57;5.68;;;;;;;;;;5052709;28;20097;-81
2022/01/25 03:04:05;;;;;;;5.45;3.75;;;;;;;;;;5058621;28;20508;-81
2022/01/25 03:06:31;;;;;;;5.68;3.47;;;;;;;;;;5058834;28;20066;-80
2022/01/25 03:08:57;;;;;;;9.25;5.20;;;;;;;;;;5057777;28;20025;-82
2022/01/25 03:11:24;;;;;;;6.00;3.42;;;;;;;;;;5057294;28;20039;-79
2022/01/25 03:13:54;;;;;;;4.80;2.90;;;;;;;;;;5062909;28;20082;-80
2022/01/25 03:18:55;;;;;;;3.30;1.80;;;;;;;;;;5059819;28;20495;-80
2022/01/25 03:23:54;;;;;;;3.25;1.48;;;;;;;;;;5049800;28;20098;-79
2022/01/25 03:26:20;;;;;;;4.00;1.80;;;;;;;;;;5057623;28;20033;-81
2022/01/25 03:28:46;;;;;;;4.90;2.90;;;;;;;;;;5052378;28;20035;-80
2022/01/25 03:31:12;;;;;;;6.65;3.80;;;;;;;;;;5055330;28;20104;-79
2022/01/25 03:33:39;;;;;;;4.90;2.40;;;;;;;;;;5062917;28;20829;-79
2022/01/25 03:36:07;;;;;;;3.72;2.35;;;;;;;;;;5056218;28;20483;-80
2022/01/25 03:38:37;;;;;;;3.53;2.63;;;;;;;;;;5058741;28;20058;-78
2022/01/25 03:41:06;;;;;;;;;;;;;;;;;;5057925;28;20060;-80
2022/01/25 03:43:31;;;;;;;3.05;2.10;;;;;;;;;;5061093;28;19951;-79
2022/01/25 03:46:06;;;;;;;3.80;2.92;;;;;;;;;;5057149;28;20056;-79
2022/01/25 03:50:57;;;;;;;5.20;3.10;;;;;;;;;;5061020;28;20131;-79
2022/01/25 03:53:23;;;;;;;7.72;3.78;;;;;;;;;;5055834;28;20040;-79
2022/01/25 03:55:48;;;;;;;4.95;2.75;;;;;;;;;;5054865;28;20464;-81
2022/01/25 03:58:15;;;;;;;4.55;3.08;;;;;;;;;;5055233;28;20091;-80
2022/01/25 04:00:41;;;;;;;2.65;1.60;;;;;;;;;;5059230;28;20025;-80
2022/01/25 04:05:58;;;;;;;3.53;1.63;;;;;;;;;;5053159;28;20139;-81
2022/01/25 04:08:22;;;;;;;4.10;2.25;;;;;;;;;;5047978;28;20041;-80
2022/01/25 04:10:47;;;;;;;8.35;3.97;;;;;;;;;;5054344;28;20029;-81
2022/01/25 04:13:13;;;;;;;6.93;3.10;;;;;;;;;;5052671;28;20033;-80
2022/01/25 04:15:45;;;;;;;6.07;3.67;;;;;;;;;;5060329;28;20035;-81
2022/01/25 04:26:25;;;;;;;3.40;2.55;;;;;;;;;;5050954;28;20056;-80
2022/01/25 04:28:51;;;;;;;4.30;2.88;;;;;;;;;;5059135;28;20028;-82
2022/01/25 04:31:19;;;;;;;6.82;3.70;;;;;;;;;;5056233;28;20033;-81
2022/01/25 04:33:56;;;;;;;7.65;3.75;;;;;;;;;;5052184;28;20442;-79
2022/01/25 04:49:48;;;;;;;11.63;6.22;;;;;;;;;;5051900;28;20047;-79
2022/01/25 04:52:18;;;;;;;6.82;4.18;;;;;;;;;;5057200;28;20038;-79
2022/01/25 04:54:48;;;;;;;11.32;7.22;;;;;;;;;;5052209;28;20024;-78
2022/01/25 04:59:50;;;;;;;7.20;4.15;;;;;;;;;;5050137;28;20415;-80
2022/01/25 05:04:54;;;;;;;8.80;4.45;;;;;;;;;;5057307;28;20089;-80
2022/01/25 05:09:52;;;;;;;10.57;6.43;;;;;;;;;;5053093;28;20079;-79
2022/01/25 05:12:18;;;;;;;13.38;6.85;;;;;;;;;;5058094;28;20060;-80
2022/01/25 05:14:58;;;;;;;17.02;9.55;;;;;;;;;;5050875;28;20052;-79
2022/01/25 05:17:33;;;;;;;16.85;9.55;;;;;;;;;;5048801;28;20095;-78
2022/01/25 05:22:43;;;;;;;9.35;5.65;;;;;;;;;;5053485;28;20059;-81
2022/01/25 05:25:08;;;;;;;12.75;6.05;;;;;;;;;;5053065;28;20028;-79
2022/01/25 05:27:34;;;;;;;14.45;7.55;;;;;;;;;;5052402;28;20833;-80
2022/01/25 05:29:59;;;;;;;13.50;6.88;;;;;;;;;;5048623;28;20393;-80
2022/01/25 05:32:25;;;;;;;10.13;5.53;;;;;;;;;;5051625;28;20424;-79
2022/01/25 05:34:50;;;;;;;10.00;6.10;;;;;;;;;;5050275;28;20067;-80
2022/01/25 05:37:16;;;;;;;11.43;6.78;;;;;;;;;;5054876;28;20040;-79
2022/01/25 05:39:42;;;;;;;7.85;6.25;;;;;;;;;;5046070;28;20032;-81
2022/01/25 05:44:42;;;;;;;13.05;7.45;;;;;;;;;;5052380;28;20042;-81
2022/01/25 05:47:12;;;;;;;11.52;7.03;;;;;;;;;;5057080;28;20032;-81
2022/01/25 05:49:38;;;;;;;12.00;6.75;;;;;;;;;;5060854;28;20024;-79
2022/01/25 05:52:07;;;;;;;8.75;6.00;;;;;;;;;;5053030;28;20056;-80
2022/01/25 05:54:33;;;;;;;12.47;6.70;;;;;;;;;;5054462;28;20384;-82
2022/01/25 05:56:58;;;;;;;13.80;6.20;;;;;;;;;;5054723;28;20027;-81
2022/01/25 05:59:24;;;;;;;11.40;5.72;;;;;;;;;;5052877;28;20376;-80
2022/01/25 06:01:49;;;;;;;14.13;6.18;;;;;;;;;;5053416;28;20021;-80
2022/01/25 06:04:15;;;;;;;9.55;5.20;;;;;;;;;;5052658;28;20044;-79
2022/01/25 06:06:41;;;;;;;12.15;7.47;;;;;;;;;;5052453;28;20028;-79
2022/01/25 06:09:07;;;;;;;10.60;5.05;;;;;;;;;;5057001;28;20385;-79
2022/01/25 06:11:34;;;;;;;8.27;5.82;;;;;;;;;;5059250;28;20029;-80
2022/01/25 06:14:00;;;;;;;10.43;5.68;;;;;;;;;;5053421;28;20613;-80
2022/01/25 06:16:28;;;;;;;9.73;5.65;;;;;;;;;;5053257;28;20054;-81
2022/01/25 06:18:54;;;;;;;16.90;7.22;;;;;;;;;;5049089;28;20531;-79
2022/01/25 06:21:20;;;;;;;10.23;5.75;;;;;;;;;;5049508;28;20024;-78
2022/01/25 06:23:47;;;;;;;14.25;7.00;;;;;;;;;;5048141;28;20044;-78
2022/01/25 06:26:13;;;;;;;9.63;5.57;;;;;;;;;;5048849;28;20039;-81
2022/01/25 06:28:38;;;;;;;11.52;6.93;;;;;;;;;;5047531;28;20119;-80
2022/01/25 06:31:04;;;;;;;10.27;6.40;;;;;;;;;;5044219;28;20105;-79
2022/01/25 06:33:30;;;;;;;14.57;7.32;;;;;;;;;;5048820;28;20090;-80
2022/01/25 06:35:56;;;;;;;8.48;6.15;;;;;;;;;;5053089;28;20020;-81
2022/01/25 06:38:22;;;;;;;11.70;6.80;;;;;;;;;;5052085;28;20033;-80
2022/01/25 06:40:48;;;;;;;12.30;6.60;;;;;;;;;;5048202;28;20531;-80
2022/01/25 06:43:13;;;;;;;9.73;6.40;;;;;;;;;;5049658;28;20063;-79
2022/01/25 06:45:41;;;;;;;17.48;8.18;;;;;;;;;;5049041;28;20373;-79
2022/01/25 06:48:07;;;;;;;15.30;6.25;;;;;;;;;;5050047;28;20029;-80
2022/01/25 06:50:33;;;;;;;13.70;7.72;;;;;;;;;;5049665;28;20033;-80
2022/01/25 06:53:00;;;;;;;14.05;6.82;;;;;;;;;;5049174;28;20059;-79
2022/01/25 06:55:25;;;;;;;12.63;7.07;;;;;;;;;;5050500;28;20461;-81
2022/01/25 06:57:51;;;;;;;15.00;6.97;;;;;;;;;;5049997;28;20036;-79
2022/01/25 07:00:22;;;;;;;11.82;6.82;;;;;;;;;;5047847;28;20033;-80
2022/01/25 07:02:48;;;;;;;9.73;5.70;;;;;;;;;;5047923;28;20025;-78
2022/01/25 07:05:14;;;;;;;18.00;8.70;;;;;;;;;;5053305;28;20028;-80
2022/01/25 07:07:43;;;;;;;12.30;7.00;;;;;;;;;;5052589;28;20041;-80
2022/01/25 07:10:10;;;;;;;10.65;6.47;;;;;;;;;;5053468;28;20124;-79
2022/01/25 07:12:35;;;;;;;10.75;6.68;;;;;;;;;;5049762;28;20036;-78
2022/01/25 07:15:01;;;;;;;9.30;7.20;;;;;;;;;;5048534;28;20102;-80
2022/01/25 07:17:26;;;;;;;13.18;8.57;;;;;;;;;;5054517;28;20048;-82
2022/01/25 07:19:52;;;;;;;17.55;8.45;;;;;;;;;;5052185;28;20826;-79
2022/01/25 07:22:18;;;;;;;15.57;7.97;;;;;;;;;;5049563;28;20037;-79
2022/01/25 07:24:43;;;;;;;13.30;7.50;;;;;;;;;;5046527;28;20033;-80
2022/01/25 07:27:09;;;;;;;11.88;7.53;;;;;;;;;;5056427;28;20099;-82
2022/01/25 07:29:35;;;;;;;17.10;8.15;;;;;;;;;;5047079;28;20466;-80
2022/01/25 07:32:01;;;;;;;12.77;8.15;;;;;;;;;;5050681;28;20029;-80
2022/01/25 07:34:28;;;;;;;10.80;8.13;;;;;;;;;;5045594;28;20108;-78
2022/01/25 07:36:53;;;;;;;15.68;9.15;;;;;;;;;;5049479;28;20033;-79
2022/01/25 07:39:19;;;;;;;15.20;7.60;;;;;;;;;;5052488;28;20048;-79
2022/01/25 07:41:45;;;;;;;14.93;7.63;;;;;;;;;;5052727;28;20138;-78
2022/01/25 07:44:11;;;;;;;13.25;7.25;;;;;;;;;;5050776;28;20036;-78
2022/01/25 07:46:38;;;;;;;17.83;10.23;;;;;;;;;;5051681;28;20115;-77
2022/01/25 07:49:04;;;;;;;21.27;10.57;;;;;;;;;;5050649;28;20047;-78
2022/01/25 07:51:29;;;;;;;9.85;5.68;;;;;;;;;;5051263;28;20024;-77
2022/01/25 07:53:56;;;;;;;8.90;5.78;;;;;;;;;;5050549;28;20111;-79
2022/01/25 07:56:22;;;;;;;13.32;7.20;;;;;;;;;;5052732;28;20091;-78
2022/01/25 07:58:48;;;;;;;11.85;7.13;;;;;;;;;;5049974;28;20510;-80
2022/01/25 08:01:16;;;;;;;15.82;7.05;;;;;;;;;;5049912;28;20035;-81
2022/01/25 08:03:43;;;;;;;19.08;11.98;;;;;;;;;;5042521;28;20040;-79
2022/01/25 08:06:09;;;;;;;11.35;6.60;;;;;;;;;;5049985;28;20507;-79
2022/01/25 08:08:35;;;;;;;12.93;7.82;;;;;;;;;;5046584;28;20032;-78
2022/01/25 08:11:01;;;;;;;12.52;7.38;;;;;;;;;;5050136;28;20021;-78
2022/01/25 08:13:27;;;;;;;14.38;7.55;;;;;;;;;;5050516;28;20036;-78
2022/01/25 08:15:52;;;;;;;15.93;7.97;;;;;;;;;;5049991;28;20051;-78
2022/01/25 08:18:18;;;;;;;13.52;8.15;;;;;;;;;;5078523;28;20397;-79
2022/01/25 08:20:43;;;;;;;15.20;8.18;;;;;;;;;;5046137;28;20038;-77
2022/01/25 08:23:09;;;;;;;12.77;7.15;;;;;;;;;;5056135;28;20096;-77
2022/01/25 08:25:34;;;;;;;15.13;9.13;;;;;;;;;;5050848;28;20033;-78
2022/01/25 08:28:00;;;;;;;17.15;8.85;;;;;;;;;;5052103;28;20029;-79
2022/01/25 08:30:26;;;;;;;16.42;9.75;;;;;;;;;;5047954;28;20028;-77
2022/01/25 08:32:51;;;;;;;19.50;9.25;;;;;;;;;;5048700;28;20090;-80
2022/01/25 08:35:18;;;;;;;13.00;7.40;;;;;;;;;;5048462;28;20094;-79
2022/01/25 08:37:44;;;;;;;19.05;10.73;;;;;;;;;;5047112;28;20029;-78
2022/01/25 08:40:10;;;;;;;14.80;9.15;;;;;;;;;;5050487;28;20044;-79
2022/01/25 08:42:36;;;;;;;22.65;12.63;;;;;;;;;;5050955;28;20397;-78
2022/01/25 08:45:05;;;;;;;23.08;12.23;;;;;;;;;;5048563;28;20074;-79
2022/01/25 08:47:30;;;;;;;11.88;7.78;;;;;;;;;;5050566;28;20108;-79
2022/01/25 08:49:56;;;;;;;16.50;9.15;;;;;;;;;;5051018;28;20146;-79
2022/01/25 08:52:21;;;;;;;13.35;7.70;;;;;;;;;;5050732;28;20033;-79
2022/01/25 08:54:47;;;;;;;17.85;8.32;;;;;;;;;;5050019;28;20033;-79
2022/01/25 08:57:12;;;;;;;15.45;8.40;;;;;;;;;;5047594;28;20473;-78
2022/01/25 08:59:38;;;;;;;10.02;6.22;;;;;;;;;;5049520;28;20071;-79
2022/01/25 09:02:04;;;;;;;14.48;6.68;;;;;;;;;;5050849;28;20028;-80
2022/01/25 09:04:30;;;;;;;15.45;8.50;;;;;;;;;;5047885;28;20128;-77
2022/01/25 09:06:55;;;;;;;23.58;11.40;;;;;;;;;;5048485;28;20124;-77
2022/01/25 09:09:21;;;;;;;11.40;7.00;;;;;;;;;;5051091;28;20082;-78
2022/01/25 09:11:47;;;;;;;12.75;7.18;;;;;;;;;;5050423;28;20483;-80
2022/01/25 09:14:13;;;;;;;17.30;9.40;;;;;;;;;;5050348;28;21344;-78
2022/01/25 09:16:39;;;;;;;14.90;8.70;;;;;;;;;;5047970;28;20530;-78
2022/01/25 09:19:06;;;;;;;38.47;20.48;;;;;;;;;;5064471;28;20082;-79
2022/01/25 09:21:32;;;;;;;21.52;11.40;;;;;;;;;;5048354;28;20029;-78
2022/01/25 09:23:57;;;;;;;15.52;8.80;;;;;;;;;;5056852;28;20031;-79
2022/01/25 09:26:24;;;;;;;9.68;6.03;;;;;;;;;;5056419;28;20036;-80
2022/01/25 09:28:53;;;;;;;12.18;7.55;;;;;;;;;;5053863;28;20456;-79
2022/01/25 09:31:19;;;;;;;13.73;5.88;;;;;;;;;;5049766;28;20021;-78
2022/01/25 09:33:45;;;;;;;12.45;7.03;;;;;;;;;;5053714;28;20033;-84
2022/01/25 09:36:10;;;;;;;13.20;8.63;;;;;;;;;;5053925;28;20021;-86
2022/01/25 09:38:35;;;;;;;13.13;5.95;;;;;;;;;;5054859;28;20032;-82
2022/01/25 09:41:01;;;;;;;17.65;6.82;;;;;;;;;;5061391;28;20381;-82
2022/01/25 09:43:28;;;;;;;12.88;7.35;;;;;;;;;;5052638;28;20112;-78
2022/01/25 09:45:54;;;;;;;9.80;6.72;;;;;;;;;;5051370;28;20028;-81
2022/01/25 09:48:20;;;;;;;11.95;8.48;;;;;;;;;;5050149;28;20086;-79
2022/01/25 09:50:46;;;;;;;19.08;11.10;;;;;;;;;;5048586;28;20136;-80
2022/01/25 09:53:11;;;;;;;12.13;7.30;;;;;;;;;;5050173;28;20104;-79
2022/01/25 09:55:40;;;;;;;16.38;10.68;;;;;;;;;;5049448;28;20432;-77
2022/01/25 09:58:06;;;;;;;11.77;6.43;;;;;;;;;;5048883;28;20108;-80
2022/01/25 10:00:34;;;;;;;9.98;7.15;;;;;;;;;;5048913;28;20034;-78
2022/01/25 10:03:17;;;;;;;11.93;6.43;;;;;;;;;;5046606;28;20033;-80
2022/01/25 10:05:46;;;;;;;17.95;10.05;;;;;;;;;;5046548;28;20028;-78
2022/01/25 10:08:27;;;;;;;11.70;6.67;;;;;;;;;;5053870;28;20056;-79
2022/01/25 10:11:02;;;;;;;17.55;10.27;;;;;;;;;;5046106;28;20315;-79
2022/01/25 10:13:34;;;;;;;12.27;7.68;;;;;;;;;;5047434;28;20044;-78
2022/01/25 10:16:06;;;;;;;17.42;9.35;;;;;;;;;;5048366;28;20060;-78
2022/01/25 10:18:48;;;;;;;16.67;10.88;;;;;;;;;;5046497;28;20033;-79
2022/01/25 10:21:17;;;;;;;11.32;6.63;;;;;;;;;;5046765;28;20457;-78
2022/01/25 10:24:05;;;;;;;18.73;9.55;;;;;;;;;;5049887;28;20151;-80
2022/01/25 10:26:51;;;;;;;14.40;7.88;;;;;;;;;;5044220;28;20055;-79
2022/01/25 10:29:30;;;;;;;15.63;10.13;;;;;;;;;;5045672;28;20041;-78
2022/01/25 10:32:06;;;;;;;11.68;7.70;;;;;;;;;;5047230;28;20029;-78
2022/01/25 10:34:45;;;;;;;15.40;8.80;;;;;;;;;;5044503;28;20039;-78
2022/01/25 10:37:23;;;;;;;22.10;11.95;;;;;;;;;;5046161;28;20199;-77
2022/01/25 10:39:52;;;;;;;19.50;8.75;;;;;;;;;;5042680;28;20507;-78
2022/01/25 10:42:23;;;;;;;12.77;6.30;;;;;;;;;;5048350;28;20025;-78
2022/01/25 10:44:55;;;;;;;19.75;10.57;;;;;;;;;;5047624;28;20094;-77
2022/01/25 10:47:48;;;;;;;18.35;9.90;;;;;;;;;;5047414;28;20029;-79
2022/01/25 10:50:35;;;;;;;11.10;5.75;;;;;;;;;;5052072;28;20090;-80
2022/01/25 10:53:07;;;;;;;16.17;8.43;;;;;;;;;;5043839;28;20040;-80
2022/01/25 10:55:42;;;;;;;20.95;13.07;;;;;;;;;;5045205;28;20421;-80
2022/01/25 10:58:08;;;;;;;13.32;7.25;;;;;;;;;;5048829;28;20024;-80
2022/01/25 11:00:41;;;;;;;13.75;8.93;;;;;;;;;;5045843;28;20103;-79
2022/01/25 11:03:07;;;;;;;15.98;9.02;;;;;;;;;;5045831;28;20021;-79
2022/01/25 11:05:45;;;;;;;22.05;9.23;;;;;;;;;;5046982;28;20374;-78
2022/01/25 11:08:19;;;;;;;17.75;6.88;;;;;;;;;;5045051;28;20338;-79
2022/01/25 11:10:52;;;;;;;13.52;7.65;;;;;;;;;;5050979;28;20035;-79
2022/01/25 11:15:57;;;;;;;20.98;9.52;;;;;;;;;;5043786;28;20463;-78
2022/01/25 11:18:22;;;;;;;18.20;9.68;;;;;;;;;;5045831;28;20076;-78
2022/01/25 11:20:50;;;;;;;22.70;14.07;;;;;;;;;;5046488;28;20410;-80
2022/01/25 11:23:17;;;;;;;19.85;11.80;;;;;;;;;;5046440;28;20059;-79
2022/01/25 11:25:44;;;;;;;20.20;12.60;;;;;;;;;;5044481;28;20025;-79
2022/01/25 11:28:11;;;;;;;20.02;11.95;;;;;;;;;;5043163;28;20036;-79
2022/01/25 11:30:38;;;;;;;24.73;12.77;;;;;;;;;;5046016;28;20032;-79
2022/01/25 11:33:05;;;;;;;20.25;10.15;;;;;;;;;;5044457;28;20063;-78
2022/01/25 11:35:31;;;;;;;21.58;10.82;;;;;;;;;;5046044;28;20044;-80
2022/01/25 11:37:57;;;;;;;18.77;10.73;;;;;;;;;;5044457;28;20476;-79
2022/01/25 11:40:31;;;;;;;23.42;13.52;;;;;;;;;;5046636;28;20029;-80
2022/01/25 11:43:08;;;;;;;20.35;10.35;;;;;;;;;;5044490;28;20033;-79
2022/01/25 11:45:35;;;;;;;20.67;10.43;;;;;;;;;;5043041;28;20067;-79
2022/01/25 11:48:02;;;;;;;23.58;12.23;;;;;;;;;;5046188;28;20036;-78
2022/01/25 11:50:33;;;;;;;21.67;10.82;;;;;;;;;;5046114;28;20055;-77
2022/01/25 11:53:05;;;;;;;21.80;12.60;;;;;;;;;;5050971;28;20032;-80
2022/01/25 11:55:38;;;;;;;28.88;13.85;;;;;;;;;;5049204;28;20378;-80
2022/01/25 11:58:05;;;;;;;20.98;11.25;;;;;;;;;;5049672;28;20159;-78
2022/01/25 12:00:50;;;;;;;22.52;11.45;;;;;;;;;;5047594;28;20432;-78
2022/01/25 12:03:29;;;;;;;21.55;11.07;;;;;;;;;;5047608;28;20033;-78
2022/01/25 12:06:05;;;;;;;22.83;13.35;;;;;;;;;;5047673;28;20112;-78
2022/01/25 12:11:28;;;;;;;;;;;;;;;;;;5050385;28;20044;-79
2022/01/25 12:14:19;;;;;;;24.30;10.50;;;;;;;;;;5046025;28;19927;-78
2022/01/25 12:17:02;;;;;;;52.40;27.02;;;;;;;;;;5043880;28;20052;-79
2022/01/25 12:19:30;;;;;;;16.63;9.98;;;;;;;;;;5046061;28;20030;-79
2022/01/25 12:22:15;;;;;;;22.85;14.27;;;;;;;;;;5050623;28;20024;-79
2022/01/25 12:24:48;;;;;;;20.00;9.70;;;;;;;;;;5045291;28;20032;-81
2022/01/25 12:27:26;;;;;;;21.15;12.45;;;;;;;;;;5048340;28;20036;-79
2022/01/25 12:29:59;;;;;;;27.83;15.48;;;;;;;;;;5050092;28;20017;-80
2022/01/25 12:32:36;;;;;;;20.75;11.95;;;;;;;;;;5051796;28;20032;-78
2022/01/25 12:35:05;;;;;;;27.23;13.15;;;;;;;;;;5049661;28;20477;-78
2022/01/25 12:37:43;;;;;;;24.98;13.88;;;;;;;;;;5048381;28;20052;-78
2022/01/25 12:40:28;;;;;;;19.15;10.63;;;;;;;;;;5050149;28;20037;-78
2022/01/25 12:43:14;;;;;;;19.98;11.88;;;;;;;;;;5050365;28;20202;-81
2022/01/25 12:45:45;;;;;;;20.85;9.80;;;;;;;;;;5048321;28;20025;-77
2022/01/25 12:48:17;;;;;;;36.80;15.27;;;;;;;;;;5050911;28;20067;-78
2022/01/25 12:50:45;;;;;;;24.10;11.57;;;;;;;;;;5046039;28;20025;-77
2022/01/25 12:53:14;;;;;;;26.90;12.80;;;;;;;;;;5049764;28;20357;-78
2022/01/25 12:55:44;;;;;;;32.80;12.02;;;;;;;;;;5052332;28;20034;-78
2022/01/25 12:58:10;;;;;;;;;;;;;;;;;;5055305;28;20112;-78
2022/01/25 13:00:39;;;;;;;30.77;13.05;;;;;;;;;;5047024;28;20003;-78
2022/01/25 13:03:11;;;;;;;23.90;12.25;;;;;;;;;;5054169;28;20128;-78
2022/01/25 13:05:41;;;;;;;17.55;10.52;;;;;;;;;;5053195;28;20086;-78
2022/01/25 13:08:43;;;;;;;20.85;11.82;;;;;;;;;;5050453;28;20029;-77
2022/01/25 13:11:13;;;;;;;25.60;12.88;;;;;;;;;;5044411;28;20041;-77
2022/01/25 13:13:58;;;;;;;24.13;9.50;;;;;;;;;;5049664;28;20438;-78
2022/01/25 13:17:03;;;;;;;21.08;9.85;;;;;;;;;;5049395;28;20041;-78
2022/01/25 13:19:37;;;;;;;20.90;11.45;;;;;;;;;;5050358;28;20037;-78
2022/01/25 13:22:10;;;;;;;25.95;12.75;;;;;;;;;;5049839;28;20048;-79
2022/01/25 13:24:44;;;;;;;23.05;12.45;;;;;;;;;;5047752;28;20029;-81
2022/01/25 13:27:14;;;;;;;20.98;9.65;;;;;;;;;;5050782;28;20032;-78
2022/01/25 13:32:30;;;;;;;24.40;12.52;;;;;;;;;;5048087;28;20036;-77
2022/01/25 13:37:42;;;;;;;25.20;15.07;;;;;;;;;;5050350;28;20029;-79
2022/01/25 13:40:09;;;;;;;23.20;11.65;;;;;;;;;;5047447;28;20028;-78
2022/01/25 13:42:55;;;;;;;38.83;18.35;;;;;;;;;;5048193;28;20067;-79
2022/01/25 13:48:08;;;;;;;17.33;9.55;;;;;;;;;;5051181;28;20040;-78
2022/01/25 13:50:36;;;;;;;25.00;13.65;;;;;;;;;;5054870;28;20026;-78
2022/01/25 13:53:02;;;;;;;24.30;13.23;;;;;;;;;;5050211;28;20029;-78
2022/01/25 13:55:28;;;;;;;20.60;11.02;;;;;;;;;;5050656;28;20119;-80
2022/01/25 13:57:54;;;;;;;20.50;10.18;;;;;;;;;;5054982;28;20100;-80
2022/01/25 14:00:21;;;;;;;15.65;10.32;;;;;;;;;;5051311;28;20059;-78
2022/01/25 14:02:49;;;;;;;19.55;9.57;;;;;;;;;;5050694;28;20044;-77
2022/01/25 14:05:15;;;;;;;18.70;9.68;;;;;;;;;;5050922;28;20037;-79
2022/01/25 14:07:40;;;;;;;19.02;10.40;;;;;;;;;;5048720;28;20029;-79
2022/01/25 14:10:17;;;;;;;16.88;9.20;;;;;;;;;;5052794;28;20100;-78
2022/01/25 14:23:46;;;;;;;19.40;9.80;;;;;;;;;;5047259;28;20112;-81
2022/01/25 14:26:12;;;;;;;15.55;9.27;;;;;;;;;;5054215;28;20103;-81
2022/01/25 14:28:42;;;;;;;14.50;8.52;;;;;;;;;;5052255;28;20508;-80
2022/01/25 14:31:22;;;;;;;14.40;7.90;;;;;;;;;;5056826;28;20116;-81
2022/01/25 14:33:58;;;;;;;18.15;9.02;;;;;;;;;;5050751;28;20436;-82
2022/01/25 14:36:25;;;;;;;14.93;8.38;;;;;;;;;;5046957;28;20556;-79
2022/01/25 14:38:54;;;;;;;18.10;11.02;;;;;;;;;;5045506;28;20040;-79
2022/01/25 14:41:23;;;;;;;13.00;7.47;;;;;;;;;;5044297;28;20071;-80
2022/01/25 14:43:53;;;;;;;24.50;10.43;;;;;;;;;;5050055;28;20392;-80
2022/01/25 14:46:30;;;;;;;18.80;8.43;;;;;;;;;;5045242;28;20029;-80
2022/01/25 14:49:08;;;;;;;21.92;11.32;;;;;;;;;;5046030;28;20056;-78
2022/01/25 14:51:52;;;;;;;14.70;8.68;;;;;;;;;;5047882;28;20021;-78
2022/01/25 14:54:32;;;;;;;25.05;11.52;;;;;;;;;;5044115;28;20045;-78
2022/01/25 14:57:01;;;;;;;15.10;8.80;;;;;;;;;;5045352;28;20079;-79
2022/01/25 14:59:33;;;;;;;18.33;8.80;;;;;;;;;;5048355;28;20125;-78
2022/01/25 15:02:01;;;;;;;10.52;7.30;;;;;;;;;;5050113;28;20025;-79
2022/01/25 15:04:31;;;;;;;33.95;15.73;;;;;;;;;;5045325;28;20124;-78
2022/01/25 15:06:58;;;;;;;35.42;18.77;;;;;;;;;;5049201;28;20063;-78
2022/01/25 15:09:24;;;;;;;48.85;20.70;;;;;;;;;;5050764;28;20028;-78
2022/01/25 15:11:53;;;;;;;18.80;12.32;;;;;;;;;;5047468;28;20036;-80
2022/01/25 15:14:22;;;;;;;28.67;13.80;;;;;;;;;;5047877;28;20044;-80
2022/01/25 15:16:48;;;;;;;22.15;11.00;;;;;;;;;;5050858;28;20040;-79
2022/01/25 15:19:19;;;;;;;18.42;10.15;;;;;;;;;;5043734;28;20080;-78
2022/01/25 15:21:50;;;;;;;30.33;15.07;;;;;;;;;;5053223;28;20021;-79
2022/01/25 15:24:27;;;;;;;20.60;9.10;;;;;;;;;;5054454;28;20037;-79
2022/01/25 15:26:54;;;;;;;28.17;15.18;;;;;;;;;;5051459;28;20044;-78
2022/01/25 15:29:23;;;;;;;18.23;8.70;;;;;;;;;;5054670;28;20025;-80
2022/01/25 15:31:57;;;;;;;36.80;16.10;;;;;;;;;;5051750;28;20036;-79
2022/01/25 15:34:24;;;;;;;38.08;19.13;;;;;;;;;;5050766;28;20025;-79
2022/01/25 15:36:50;;;;;;;21.88;10.07;;;;;;;;;;5052269;28;20112;-79
2022/01/25 15:39:16;;;;;;;13.30;7.43;;;;;;;;;;5051237;28;20524;-79
2022/01/25 15:41:43;;;;;;;18.80;11.55;;;;;;;;;;5048631;28;20025;-78
2022/01/25 15:44:10;;;;;;;22.27;11.52;;;;;;;;;;5057946;28;20032;-78
2022/01/25 15:49:14;;;;;;;30.98;13.57;;;;;;;;;;5050321;28;20043;-79
2022/01/25 15:51:40;;;;;;;27.63;13.20;;;;;;;;;;5050294;28;20416;-82
2022/01/25 15:54:06;;;;;;;32.28;17.45;;;;;;;;;;5050482;28;20095;-80
2022/01/25 15:56:31;;;;;;;24.05;12.18;;;;;;;;;;5053707;28;20374;-79
2022/01/25 15:58:57;;;;;;;35.05;16.50;;;;;;;;;;5053572;28;20473;-79
2022/01/25 16:01:23;;;;;;;33.10;16.60;;;;;;;;;;5052835;28;20055;-78
2022/01/25 16:03:51;;;;;;;27.77;14.32;;;;;;;;;;5055499;28;20465;-81
2022/01/25 16:06:17;;;;;;;33.58;14.50;;;;;;;;;;5050874;28;20072;-78
2022/01/25 16:08:43;;;;;;;23.52;10.57;;;;;;;;;;5052542;28;20032;-79
2022/01/25 16:11:18;;;;;;;32.13;15.25;;;;;;;;;;5049212;28;20025;-79
2022/01/25 16:13:46;;;;;;;30.17;12.68;;;;;;;;;;5052144;28;20048;-79
2022/01/25 16:16:13;;;;;;;25.77;11.75;;;;;;;;;;5051218;28;20025;-79
2022/01/25 16:18:40;;;;;;;22.48;12.27;;;;;;;;;;5050622;28;20037;-78
2022/01/25 16:21:06;;;;;;;30.23;13.38;;;;;;;;;;5054672;28;20055;-79
2022/01/25 16:23:31;;;;;;;35.70;16.63;;;;;;;;;;5057439;28;20016;-80
2022/01/25 16:25:57;;;;;;;47.58;14.50;;;;;;;;;;5049246;28;20388;-81
2022/01/25 16:28:23;;;;;;;30.48;17.95;;;;;;;;;;5045868;28;20045;-81
2022/01/25 16:30:54;;;;;;;25.88;15.30;;;;;;;;;;5054101;28;20488;-78
2022/01/25 16:33:19;;;;;;;19.25;10.07;;;;;;;;;;5048198;28;20028;-77
2022/01/25 16:35:45;;;;;;;27.13;16.33;;;;;;;;;;5051044;28;20534;-82
2022/01/25 16:38:11;;;;;;;27.23;12.93;;;;;;;;;;5054682;28;20024;-80
2022/01/25 16:40:37;;;;;;;15.77;9.25;;;;;;;;;;5051798;28;20052;-80
2022/01/25 16:43:03;;;;;;;21.60;13.50;;;;;;;;;;5046068;28;20029;-79
2022/01/25 16:45:32;;;;;;;17.25;9.48;;;;;;;;;;5060142;28;20510;-79
2022/01/25 16:47:58;;;;;;;32.53;19.23;;;;;;;;;;5048044;28;20127;-78
2022/01/25 16:50:25;;;;;;;23.92;11.82;;;;;;;;;;5056953;28;20466;-79
2022/01/25 16:52:51;;;;;;;31.02;17.70;;;;;;;;;;5055177;28;20349;-81
2022/01/25 16:55:17;;;;;;;25.73;11.88;;;;;;;;;;5050333;28;20111;-80
2022/01/25 16:57:43;;;;;;;29.92;12.18;;;;;;;;;;5060604;28;20426;-80
2022/01/25 17:00:11;;;;;;;28.60;16.20;;;;;;;;;;5053378;28;20078;-80
2022/01/25 17:02:38;;;;;;;22.25;12.13;;;;;;;;;;5054176;28;20852;-81